Terminal Aerodrome Forecast
Issued by NWS Spokane, WA

Current Version | Previous Version | Text Only | Print | Product List | Glossary On
Versions: 1 2 3 4 5 6 7 8 9 10 11 12 13 14
000
FTUS46 KOTX 291739
TAFEAT
TAF
KEAT 291739Z 2918/3018 30012KT P6SM OVC100
     FM292200 31016G22KT P6SM OVC100
     FM300400 30011KT P6SM SCT150=

USA.gov is the U.S. government's official web portal to all federal, state and local government web resources and services.